Time;durP1;ratioP1;P1;durP2;ratioP2;P2;SDS_P1;SDS_P2;PMS_P1;PMS_P2;Temp;Humidity;BMP_temperature;BMP_pressure;BME280_temperature;BME280_humidity;BME280_pressure;Samples;Min_cycle;Max_cycle;Signal;HPM_P1;HPM_P2
2022/10/29 00:00:00;;;;;;;1.20;1.10;;;;;;;;;;5019973;28;20974;-80
2022/10/29 00:02:34;;;;;;;0.70;0.70;;;;;;;;;;5028448;28;20417;-82
2022/10/29 00:05:03;;;;;;;0.70;0.67;;;;;;;;;;5009485;28;20469;-82
2022/10/29 00:07:30;;;;;;;1.23;1.13;;;;;;;;;;5022773;28;20460;-81
2022/10/29 00:10:00;;;;;;;0.70;0.70;;;;;;;;;;5020428;28;20462;-82
2022/10/29 00:12:30;;;;;;;7.03;2.43;;;;;;;;;;5018244;28;20445;-82
2022/10/29 00:14:57;;;;;;;0.70;0.70;;;;;;;;;;5040744;28;20427;-81
2022/10/29 00:17:25;;;;;;;1.63;1.53;;;;;;;;;;5031869;28;20444;-81
2022/10/29 00:19:52;;;;;;;0.80;0.80;;;;;;;;;;5034282;28;20462;-81
2022/10/29 00:22:20;;;;;;;1.20;1.10;;;;;;;;;;5026730;28;20836;-82
2022/10/29 00:24:48;;;;;;;1.20;1.10;;;;;;;;;;5016556;28;20482;-82
2022/10/29 00:27:17;;;;;;;0.77;0.77;;;;;;;;;;5034346;28;20860;-81
2022/10/29 00:29:47;;;;;;;0.70;0.60;;;;;;;;;;5028439;28;20637;-81
2022/10/29 00:32:14;;;;;;;1.13;1.03;;;;;;;;;;5016330;28;20448;-81
2022/10/29 00:34:42;;;;;;;0.70;0.70;;;;;;;;;;5028556;28;20456;-82
2022/10/29 00:37:10;;;;;;;0.80;0.80;;;;;;;;;;5015908;28;20584;-82
2022/10/29 00:39:39;;;;;;;1.60;1.20;;;;;;;;;;5004895;28;20491;-81
2022/10/29 00:42:12;;;;;;;0.87;0.87;;;;;;;;;;5018877;28;20455;-82
2022/10/29 00:44:40;;;;;;;0.70;0.70;;;;;;;;;;5022518;28;20473;-81
2022/10/29 00:47:18;;;;;;;1.77;1.67;;;;;;;;;;5018155;28;21017;-81
2022/10/29 00:49:47;;;;;;;0.70;0.60;;;;;;;;;;5014840;28;20668;-81
2022/10/29 00:52:14;;;;;;;0.70;0.60;;;;;;;;;;5027377;28;20461;-82
2022/10/29 00:54:43;;;;;;;3.60;0.90;;;;;;;;;;5022863;28;20842;-82
2022/10/29 00:57:12;;;;;;;0.70;0.70;;;;;;;;;;5016468;28;20444;-82
2022/10/29 00:59:41;;;;;;;0.80;0.80;;;;;;;;;;5031626;28;20508;-82
2022/10/29 01:02:08;;;;;;;0.70;0.60;;;;;;;;;;5024438;28;20473;-81
2022/10/29 01:04:38;;;;;;;0.70;0.70;;;;;;;;;;5014638;28;20476;-80
2022/10/29 01:07:10;;;;;;;0.80;0.80;;;;;;;;;;5012183;28;20480;-82
2022/10/29 01:09:38;;;;;;;0.70;0.70;;;;;;;;;;5014677;28;20464;-82
2022/10/29 01:12:11;;;;;;;0.70;0.70;;;;;;;;;;5023968;28;20531;-82
2022/10/29 01:14:48;;;;;;;3.43;1.63;;;;;;;;;;5018158;28;20464;-81
2022/10/29 01:17:22;;;;;;;0.80;0.77;;;;;;;;;;5016336;28;20479;-82
2022/10/29 01:20:13;;;;;;;0.70;0.70;;;;;;;;;;5043233;28;20945;-79
2022/10/29 01:22:45;;;;;;;0.73;0.73;;;;;;;;;;5024831;28;20450;-79
2022/10/29 01:25:31;;;;;;;0.80;0.80;;;;;;;;;;5019790;28;20499;-82
2022/10/29 01:28:06;;;;;;;0.70;0.70;;;;;;;;;;5022108;28;20477;-81
2022/10/29 01:30:49;;;;;;;1.20;1.10;;;;;;;;;;5022984;28;20455;-81
2022/10/29 01:33:27;;;;;;;1.30;1.17;;;;;;;;;;5025261;28;20455;-81
2022/10/29 01:36:01;;;;;;;0.83;0.83;;;;;;;;;;5021370;28;20803;-81
2022/10/29 01:38:34;;;;;;;1.23;1.13;;;;;;;;;;5022233;28;20463;-80
2022/10/29 01:41:12;;;;;;;0.70;0.70;;;;;;;;;;5029902;28;20535;-80
2022/10/29 01:43:45;;;;;;;0.87;0.87;;;;;;;;;;5025023;28;20446;-81
2022/10/29 01:46:18;;;;;;;0.70;0.70;;;;;;;;;;5029063;28;20986;-82
2022/10/29 01:48:53;;;;;;;0.90;0.90;;;;;;;;;;5021540;28;20491;-81
2022/10/29 01:51:29;;;;;;;0.80;0.80;;;;;;;;;;5029825;28;20478;-80
2022/10/29 01:54:06;;;;;;;1.00;0.90;;;;;;;;;;5024662;28;20456;-81
2022/10/29 01:56:35;;;;;;;0.80;0.80;;;;;;;;;;5025441;28;20438;-80
2022/10/29 01:59:11;;;;;;;1.47;1.37;;;;;;;;;;5023755;28;20446;-81
2022/10/29 02:02:05;;;;;;;17.53;2.40;;;;;;;;;;5024446;28;20464;-81
2022/10/29 02:04:53;;;;;;;0.80;0.80;;;;;;;;;;5028231;28;20473;-82
2022/10/29 02:07:32;;;;;;;0.90;0.90;;;;;;;;;;5028304;28;20456;-82
2022/10/29 02:10:05;;;;;;;0.70;0.70;;;;;;;;;;5016180;28;21003;-82
2022/10/29 02:12:35;;;;;;;0.70;0.70;;;;;;;;;;5030506;28;20452;-81
2022/10/29 02:15:08;;;;;;;0.70;0.60;;;;;;;;;;5028859;28;20535;-82
2022/10/29 02:17:38;;;;;;;0.90;0.87;;;;;;;;;;5031479;28;20461;-82
2022/10/29 02:20:12;;;;;;;0.70;0.67;;;;;;;;;;5023903;28;20539;-81
2022/10/29 02:22:45;;;;;;;0.70;0.67;;;;;;;;;;5014713;28;20457;-81
2022/10/29 02:25:16;;;;;;;0.70;0.70;;;;;;;;;;5030479;28;20488;-81
2022/10/29 02:27:45;;;;;;;0.80;0.80;;;;;;;;;;5023622;28;20436;-81
2022/10/29 02:30:16;;;;;;;0.70;0.70;;;;;;;;;;5004673;28;20463;-82
2022/10/29 02:32:53;;;;;;;1.00;0.90;;;;;;;;;;5022585;28;20445;-82
2022/10/29 02:35:26;;;;;;;0.70;0.60;;;;;;;;;;5014546;28;20495;-82
2022/10/29 02:37:56;;;;;;;0.73;0.73;;;;;;;;;;5017383;28;20464;-82
2022/10/29 02:40:28;;;;;;;0.73;0.73;;;;;;;;;;5014500;28;20497;-81
2022/10/29 02:43:03;;;;;;;0.70;0.60;;;;;;;;;;5007601;28;20448;-82
2022/10/29 02:45:33;;;;;;;0.63;0.60;;;;;;;;;;5022504;28;20502;-82
2022/10/29 02:48:05;;;;;;;0.70;0.70;;;;;;;;;;5021287;28;20602;-82
2022/10/29 02:50:42;;;;;;;0.90;0.90;;;;;;;;;;5023325;28;20449;-81
2022/10/29 02:53:14;;;;;;;2.60;2.40;;;;;;;;;;5023352;28;20961;-81
2022/10/29 02:55:44;;;;;;;2.70;2.50;;;;;;;;;;5019707;28;20968;-81
2022/10/29 02:58:13;;;;;;;0.73;0.73;;;;;;;;;;5030527;28;20463;-80
2022/10/29 03:00:50;;;;;;;0.80;0.80;;;;;;;;;;5026076;28;20815;-82
2022/10/29 03:03:27;;;;;;;1.53;1.30;;;;;;;;;;5015771;28;20468;-81
2022/10/29 03:05:59;;;;;;;2.80;2.30;;;;;;;;;;5028428;28;21018;-81
2022/10/29 03:08:30;;;;;;;0.70;0.70;;;;;;;;;;5020216;28;20797;-82
2022/10/29 03:11:04;;;;;;;0.70;0.60;;;;;;;;;;5002823;28;20451;-82
2022/10/29 03:13:38;;;;;;;0.70;0.60;;;;;;;;;;5031036;28;20559;-81
2022/10/29 03:16:08;;;;;;;0.80;0.80;;;;;;;;;;5023126;28;20450;-83
2022/10/29 03:18:39;;;;;;;1.47;1.10;;;;;;;;;;5021741;28;20474;-81
2022/10/29 03:21:09;;;;;;;2.20;2.00;;;;;;;;;;5027881;28;20565;-81
2022/10/29 03:23:38;;;;;;;0.87;0.80;;;;;;;;;;5011910;28;20480;-82
2022/10/29 03:26:05;;;;;;;1.13;1.10;;;;;;;;;;5025086;28;20484;-82
2022/10/29 03:28:32;;;;;;;0.70;0.70;;;;;;;;;;5016941;28;20517;-81
2022/10/29 03:31:00;;;;;;;0.80;0.80;;;;;;;;;;5030738;28;20558;-81
2022/10/29 03:33:27;;;;;;;0.70;0.70;;;;;;;;;;5022073;28;20497;-81
2022/10/29 03:35:56;;;;;;;0.80;0.80;;;;;;;;;;5027082;28;20505;-81
2022/10/29 03:38:29;;;;;;;0.70;0.70;;;;;;;;;;5028266;28;20504;-81
2022/10/29 03:40:56;;;;;;;0.80;0.80;;;;;;;;;;5008925;28;20803;-81
2022/10/29 03:43:24;;;;;;;0.70;0.70;;;;;;;;;;5021781;28;20461;-81
2022/10/29 03:45:51;;;;;;;0.70;0.60;;;;;;;;;;5030135;28;20514;-82
2022/10/29 03:48:18;;;;;;;0.80;0.70;;;;;;;;;;5026944;28;20961;-83
2022/10/29 03:50:52;;;;;;;0.87;0.87;;;;;;;;;;5026419;28;20484;-80
2022/10/29 03:53:21;;;;;;;0.70;0.60;;;;;;;;;;5024268;28;20463;-80
2022/10/29 03:55:50;;;;;;;0.80;0.80;;;;;;;;;;5017933;28;20466;-80
2022/10/29 03:58:17;;;;;;;0.87;0.87;;;;;;;;;;5021418;28;20470;-82
2022/10/29 04:00:51;;;;;;;1.33;1.23;;;;;;;;;;5029548;28;20443;-81
2022/10/29 04:03:20;;;;;;;0.80;0.80;;;;;;;;;;5018038;28;20459;-81
2022/10/29 04:05:47;;;;;;;0.70;0.60;;;;;;;;;;5028240;28;20895;-80
2022/10/29 04:08:15;;;;;;;0.80;0.80;;;;;;;;;;5017687;28;20459;-81
2022/10/29 04:10:44;;;;;;;0.87;0.87;;;;;;;;;;5024394;28;20996;-81
2022/10/29 04:13:11;;;;;;;1.10;0.87;;;;;;;;;;5032526;28;20445;-81
2022/10/29 04:15:39;;;;;;;0.70;0.60;;;;;;;;;;5033271;28;20526;-81
2022/10/29 04:18:07;;;;;;;0.80;0.80;;;;;;;;;;5019990;28;20469;-81
2022/10/29 04:20:35;;;;;;;0.70;0.67;;;;;;;;;;5029887;28;20485;-81
2022/10/29 04:23:22;;;;;;;1.93;1.13;;;;;;;;;;5009134;28;20451;-81
2022/10/29 04:26:11;;;;;;;0.70;0.67;;;;;;;;;;5024604;28;20503;-81
2022/10/29 04:28:58;;;;;;;1.53;1.30;;;;;;;;;;5027695;28;20806;-80
2022/10/29 04:31:27;;;;;;;0.80;0.80;;;;;;;;;;5024031;28;20996;-80
2022/10/29 04:33:54;;;;;;;0.70;0.70;;;;;;;;;;5010666;28;20452;-81
2022/10/29 04:36:22;;;;;;;0.70;0.63;;;;;;;;;;5025890;28;20986;-80
2022/10/29 04:38:49;;;;;;;0.70;0.70;;;;;;;;;;5005698;28;20970;-80
2022/10/29 04:41:19;;;;;;;0.67;0.67;;;;;;;;;;5016866;28;20446;-82
2022/10/29 04:43:47;;;;;;;0.70;0.70;;;;;;;;;;5025225;28;20449;-81
2022/10/29 04:46:14;;;;;;;0.70;0.60;;;;;;;;;;5017281;28;21059;-80
2022/10/29 04:48:42;;;;;;;2.50;2.40;;;;;;;;;;5018962;28;20860;-80
2022/10/29 04:51:17;;;;;;;0.70;0.70;;;;;;;;;;5015685;28;20513;-79
2022/10/29 04:53:46;;;;;;;0.93;0.93;;;;;;;;;;5034572;28;21062;-79
2022/10/29 04:56:13;;;;;;;0.70;0.70;;;;;;;;;;5030090;28;20440;-81
2022/10/29 04:58:42;;;;;;;0.77;0.77;;;;;;;;;;5024231;28;20535;-81
2022/10/29 05:01:09;;;;;;;0.70;0.70;;;;;;;;;;5025194;28;20455;-80
2022/10/29 05:03:37;;;;;;;0.70;0.70;;;;;;;;;;5025316;28;20831;-80
2022/10/29 05:06:04;;;;;;;0.70;0.67;;;;;;;;;;5022213;28;20582;-81
2022/10/29 05:08:33;;;;;;;0.70;0.70;;;;;;;;;;5020507;28;20459;-80
2022/10/29 05:11:03;;;;;;;0.83;0.83;;;;;;;;;;5014458;28;20458;-81
2022/10/29 05:13:31;;;;;;;0.80;0.80;;;;;;;;;;5031001;28;20491;-80
2022/10/29 05:16:01;;;;;;;0.70;0.70;;;;;;;;;;5017241;28;20492;-81
2022/10/29 05:18:28;;;;;;;0.80;0.80;;;;;;;;;;5032664;28;20492;-80
2022/10/29 05:20:56;;;;;;;0.70;0.60;;;;;;;;;;5027710;28;20470;-80
2022/10/29 05:23:23;;;;;;;1.10;1.00;;;;;;;;;;5022276;28;20551;-79
2022/10/29 05:25:54;;;;;;;8.43;1.37;;;;;;;;;;5021283;28;20601;-80
2022/10/29 05:28:23;;;;;;;0.70;0.70;;;;;;;;;;5018204;28;20819;-80
2022/10/29 05:30:52;;;;;;;0.80;0.80;;;;;;;;;;5024999;28;20442;-80
2022/10/29 05:33:22;;;;;;;0.87;0.87;;;;;;;;;;5016612;28;21026;-80
2022/10/29 05:35:50;;;;;;;0.70;0.60;;;;;;;;;;5023360;28;20831;-82
2022/10/29 05:38:18;;;;;;;0.90;0.90;;;;;;;;;;5015780;28;20453;-81
2022/10/29 05:40:45;;;;;;;0.70;0.60;;;;;;;;;;5034363;28;20460;-81
2022/10/29 05:43:12;;;;;;;0.70;0.60;;;;;;;;;;5027645;28;20459;-81
2022/10/29 05:45:42;;;;;;;0.80;0.80;;;;;;;;;;5015920;28;20477;-81
2022/10/29 05:48:10;;;;;;;0.70;0.70;;;;;;;;;;5017825;28;20440;-82
2022/10/29 05:50:38;;;;;;;1.20;1.10;;;;;;;;;;5032569;28;21046;-82
2022/10/29 05:53:08;;;;;;;0.70;0.70;;;;;;;;;;5024000;28;20445;-79
2022/10/29 05:55:35;;;;;;;0.70;0.70;;;;;;;;;;5023318;28;20421;-80
2022/10/29 05:58:03;;;;;;;0.70;0.70;;;;;;;;;;5027649;28;20453;-81
2022/10/29 06:00:32;;;;;;;0.70;0.70;;;;;;;;;;5008765;28;20571;-79
2022/10/29 06:02:59;;;;;;;0.93;0.90;;;;;;;;;;5019052;28;20979;-79
2022/10/29 06:05:26;;;;;;;0.70;0.70;;;;;;;;;;5022557;28;20980;-80
2022/10/29 06:07:55;;;;;;;0.87;0.87;;;;;;;;;;5027093;28;20452;-81
2022/10/29 06:10:23;;;;;;;0.80;0.70;;;;;;;;;;5014634;28;20786;-80
2022/10/29 06:12:50;;;;;;;1.40;1.23;;;;;;;;;;4999483;28;20966;-81
2022/10/29 06:15:17;;;;;;;0.80;0.80;;;;;;;;;;5031272;28;20953;-80
2022/10/29 06:17:43;;;;;;;0.70;0.60;;;;;;;;;;5030257;28;20525;-79
2022/10/29 06:20:11;;;;;;;1.20;1.10;;;;;;;;;;5021609;28;20847;-81
2022/10/29 06:22:38;;;;;;;0.70;0.70;;;;;;;;;;5027277;28;20559;-81
2022/10/29 06:25:07;;;;;;;1.47;1.07;;;;;;;;;;5022819;28;20437;-80
2022/10/29 06:27:34;;;;;;;0.83;0.80;;;;;;;;;;5013133;28;20457;-82
2022/10/29 06:30:00;;;;;;;1.00;1.00;;;;;;;;;;5027138;28;20453;-82
2022/10/29 06:32:27;;;;;;;0.70;0.60;;;;;;;;;;5022205;28;20453;-82
2022/10/29 06:34:54;;;;;;;0.70;0.60;;;;;;;;;;5016697;28;20438;-82
2022/10/29 06:37:21;;;;;;;0.87;0.87;;;;;;;;;;5014614;28;20454;-81
2022/10/29 06:39:48;;;;;;;0.70;0.70;;;;;;;;;;5013552;28;20457;-80
2022/10/29 06:42:16;;;;;;;0.70;0.70;;;;;;;;;;5020247;28;20543;-80
2022/10/29 06:44:43;;;;;;;0.70;0.60;;;;;;;;;;5021888;28;20513;-80
2022/10/29 06:47:10;;;;;;;0.70;0.60;;;;;;;;;;5023984;28;20461;-80
2022/10/29 06:49:37;;;;;;;0.70;0.70;;;;;;;;;;5016539;28;20447;-81
2022/10/29 06:52:06;;;;;;;0.70;0.70;;;;;;;;;;5031744;28;20461;-81
2022/10/29 06:54:33;;;;;;;0.70;0.60;;;;;;;;;;5032758;28;20452;-79
2022/10/29 06:57:01;;;;;;;0.80;0.80;;;;;;;;;;5035281;28;20434;-78
2022/10/29 06:59:33;;;;;;;1.83;1.73;;;;;;;;;;5025639;28;20487;-78
2022/10/29 07:02:01;;;;;;;0.70;0.70;;;;;;;;;;5028506;28;20544;-79
2022/10/29 07:04:29;;;;;;;0.70;0.70;;;;;;;;;;5028587;28;20474;-79
2022/10/29 07:06:59;;;;;;;1.07;0.97;;;;;;;;;;5020154;28;20477;-79
2022/10/29 07:09:27;;;;;;;1.27;1.07;;;;;;;;;;5014946;28;20455;-79
2022/10/29 07:11:54;;;;;;;2.70;2.20;;;;;;;;;;5028495;28;20466;-80
2022/10/29 07:14:21;;;;;;;4.93;2.50;;;;;;;;;;5020748;28;20462;-80
2022/10/29 07:16:49;;;;;;;0.80;0.80;;;;;;;;;;5032094;28;20979;-80
2022/10/29 07:19:16;;;;;;;1.13;1.00;;;;;;;;;;5028826;28;20476;-79
2022/10/29 07:21:44;;;;;;;0.70;0.70;;;;;;;;;;5028592;28;20801;-80
2022/10/29 07:24:11;;;;;;;2.40;1.33;;;;;;;;;;5024158;28;20436;-80
2022/10/29 07:26:39;;;;;;;1.53;1.40;;;;;;;;;;5031022;28;20525;-80
2022/10/29 07:29:05;;;;;;;1.30;1.20;;;;;;;;;;5032779;28;20443;-79
2022/10/29 07:31:35;;;;;;;0.70;0.70;;;;;;;;;;5035180;28;20518;-81
2022/10/29 07:34:03;;;;;;;1.00;0.90;;;;;;;;;;5032824;28;20441;-81
2022/10/29 07:36:30;;;;;;;1.23;0.97;;;;;;;;;;5028898;28;20564;-82
2022/10/29 07:38:57;;;;;;;1.20;1.10;;;;;;;;;;5033193;28;20441;-81
2022/10/29 07:41:24;;;;;;;1.27;1.13;;;;;;;;;;5035094;28;20813;-81
2022/10/29 07:43:55;;;;;;;0.80;0.80;;;;;;;;;;5026231;28;20465;-80
2022/10/29 07:46:26;;;;;;;0.80;0.80;;;;;;;;;;5017184;28;20471;-82
2022/10/29 07:48:55;;;;;;;1.00;1.00;;;;;;;;;;5025533;28;20558;-81
2022/10/29 07:51:23;;;;;;;2.17;1.33;;;;;;;;;;5017573;28;20581;-80
2022/10/29 07:53:51;;;;;;;1.17;0.93;;;;;;;;;;5034920;28;20462;-79
2022/10/29 07:56:19;;;;;;;0.70;0.70;;;;;;;;;;5030701;28;20921;-80
2022/10/29 07:58:46;;;;;;;0.70;0.63;;;;;;;;;;5012292;28;20783;-80
2022/10/29 08:01:14;;;;;;;0.70;0.67;;;;;;;;;;5033332;28;20432;-80
2022/10/29 08:03:42;;;;;;;0.70;0.67;;;;;;;;;;5027959;28;20520;-78
2022/10/29 08:06:09;;;;;;;1.00;0.90;;;;;;;;;;5023743;28;20502;-82
2022/10/29 08:08:38;;;;;;;0.70;0.60;;;;;;;;;;5016989;28;20453;-84
2022/10/29 08:11:05;;;;;;;0.70;0.70;;;;;;;;;;5027694;28;20430;-83
2022/10/29 08:13:32;;;;;;;0.70;0.70;;;;;;;;;;5033166;28;20455;-83
2022/10/29 08:15:59;;;;;;;0.80;0.80;;;;;;;;;;5026485;28;20453;-83
2022/10/29 08:18:29;;;;;;;0.70;0.60;;;;;;;;;;5028739;28;20501;-85
2022/10/29 08:20:56;;;;;;;5.53;1.43;;;;;;;;;;5030769;28;20493;-83
2022/10/29 08:23:26;;;;;;;1.00;0.97;;;;;;;;;;5022417;28;20457;-81
2022/10/29 08:25:56;;;;;;;0.70;0.60;;;;;;;;;;5031875;28;20491;-83
2022/10/29 08:28:23;;;;;;;0.70;0.70;;;;;;;;;;5034716;28;20556;-84
2022/10/29 08:30:52;;;;;;;0.80;0.70;;;;;;;;;;5021127;28;20453;-84
2022/10/29 08:33:19;;;;;;;0.80;0.80;;;;;;;;;;5022184;28;20547;-81
2022/10/29 08:35:46;;;;;;;0.70;0.70;;;;;;;;;;5016544;28;20571;-83
2022/10/29 08:38:13;;;;;;;0.70;0.70;;;;;;;;;;5016580;28;20492;-83
2022/10/29 08:40:48;;;;;;;0.70;0.60;;;;;;;;;;5023640;28;20473;-83
2022/10/29 08:43:32;;;;;;;2.13;1.77;;;;;;;;;;5017683;28;20456;-82
2022/10/29 08:46:01;;;;;;;0.70;0.70;;;;;;;;;;5030458;28;20570;-83
2022/10/29 08:48:34;;;;;;;0.70;0.60;;;;;;;;;;5023807;28;20483;-82
2022/10/29 08:51:04;;;;;;;0.70;0.60;;;;;;;;;;5018387;28;20475;-80
2022/10/29 08:53:34;;;;;;;0.70;0.70;;;;;;;;;;5024820;28;20946;-81
2022/10/29 08:56:01;;;;;;;0.70;0.70;;;;;;;;;;5018344;28;20503;-82
2022/10/29 08:58:32;;;;;;;0.70;0.60;;;;;;;;;;5029770;28;20498;-83
2022/10/29 09:01:00;;;;;;;0.70;0.60;;;;;;;;;;5028802;28;20464;-82
2022/10/29 09:03:28;;;;;;;1.40;1.30;;;;;;;;;;5025086;28;20460;-80
2022/10/29 09:05:59;;;;;;;0.80;0.80;;;;;;;;;;5024695;28;20473;-82
2022/10/29 09:08:30;;;;;;;0.70;0.60;;;;;;;;;;5027835;28;20452;-80
2022/10/29 09:11:00;;;;;;;0.70;0.70;;;;;;;;;;5031968;28;20436;-80
2022/10/29 09:13:32;;;;;;;0.70;0.60;;;;;;;;;;5025526;28;20488;-80
2022/10/29 09:16:18;;;;;;;0.80;0.80;;;;;;;;;;5026156;28;20458;-80
2022/10/29 09:18:51;;;;;;;0.70;0.70;;;;;;;;;;5017109;28;20453;-80
2022/10/29 09:21:23;;;;;;;0.70;0.70;;;;;;;;;;5012205;28;21081;-79
2022/10/29 09:24:04;;;;;;;0.73;0.70;;;;;;;;;;5028878;28;20812;-80
2022/10/29 09:26:35;;;;;;;0.70;0.70;;;;;;;;;;5023034;28;20546;-80
2022/10/29 09:29:13;;;;;;;0.80;0.80;;;;;;;;;;5022479;28;20437;-81
2022/10/29 09:31:44;;;;;;;1.53;1.43;;;;;;;;;;5038585;28;20449;-80
2022/10/29 09:34:12;;;;;;;0.70;0.60;;;;;;;;;;5020350;28;20477;-80
2022/10/29 09:36:39;;;;;;;0.80;0.70;;;;;;;;;;5026653;28;20478;-79
2022/10/29 09:39:10;;;;;;;0.80;0.70;;;;;;;;;;5023974;28;20419;-79
2022/10/29 09:41:38;;;;;;;1.27;1.17;;;;;;;;;;5031306;28;20810;-80
2022/10/29 09:44:06;;;;;;;0.70;0.60;;;;;;;;;;5028726;28;20427;-80
2022/10/29 09:46:37;;;;;;;0.90;0.73;;;;;;;;;;5022800;28;20543;-80
2022/10/29 09:49:13;;;;;;;0.80;0.80;;;;;;;;;;5014155;28;20431;-79
2022/10/29 09:51:44;;;;;;;0.70;0.70;;;;;;;;;;5027856;28;20431;-81
2022/10/29 09:54:11;;;;;;;0.80;0.70;;;;;;;;;;5024810;28;20442;-81
2022/10/29 09:56:39;;;;;;;0.80;0.70;;;;;;;;;;5026303;28;20653;-82
2022/10/29 09:59:10;;;;;;;0.70;0.70;;;;;;;;;;5007431;28;20456;-81
2022/10/29 10:01:38;;;;;;;0.70;0.60;;;;;;;;;;5020999;28;20411;-80
2022/10/29 10:04:12;;;;;;;0.70;0.60;;;;;;;;;;5020427;28;20532;-79
2022/10/29 10:06:59;;;;;;;1.03;0.80;;;;;;;;;;5028625;28;20536;-81
2022/10/29 10:09:26;;;;;;;2.70;1.93;;;;;;;;;;5016705;28;20455;-77
2022/10/29 10:11:53;;;;;;;0.73;0.70;;;;;;;;;;5029292;28;20903;-79
2022/10/29 10:14:20;;;;;;;0.70;0.70;;;;;;;;;;5030370;28;20903;-79
2022/10/29 10:16:55;;;;;;;0.70;0.70;;;;;;;;;;5017010;28;20449;-79
2022/10/29 10:19:24;;;;;;;0.80;0.80;;;;;;;;;;5018369;28;20449;-82
2022/10/29 10:21:55;;;;;;;0.77;0.77;;;;;;;;;;5009731;28;20497;-83
2022/10/29 10:24:29;;;;;;;0.77;0.77;;;;;;;;;;5014939;28;20505;-82
2022/10/29 10:26:56;;;;;;;0.70;0.63;;;;;;;;;;5026200;28;20966;-80
2022/10/29 10:29:23;;;;;;;0.73;0.70;;;;;;;;;;5027639;28;20411;-80
2022/10/29 10:32:08;;;;;;;0.90;0.90;;;;;;;;;;5014988;28;21011;-82
2022/10/29 10:34:37;;;;;;;0.90;0.80;;;;;;;;;;5006467;28;20866;-82
2022/10/29 10:37:10;;;;;;;1.20;1.10;;;;;;;;;;5020474;28;20454;-81
2022/10/29 10:39:38;;;;;;;0.90;0.83;;;;;;;;;;5021093;28;20552;-82
2022/10/29 10:42:14;;;;;;;0.70;0.60;;;;;;;;;;5031790;28;20448;-81
2022/10/29 10:44:44;;;;;;;0.70;0.70;;;;;;;;;;5016199;28;20445;-77
2022/10/29 10:47:11;;;;;;;0.70;0.70;;;;;;;;;;5004450;28;20819;-79
2022/10/29 10:49:39;;;;;;;0.80;0.70;;;;;;;;;;5024497;28;20457;-81
2022/10/29 10:52:14;;;;;;;1.07;1.00;;;;;;;;;;5015461;28;20473;-81
2022/10/29 10:54:44;;;;;;;1.57;0.90;;;;;;;;;;5013774;28;20457;-78
2022/10/29 10:57:19;;;;;;;2.90;1.17;;;;;;;;;;5020170;28;20413;-78
2022/10/29 10:59:51;;;;;;;0.80;0.80;;;;;;;;;;5027371;28;20486;-79
2022/10/29 11:02:23;;;;;;;1.20;1.10;;;;;;;;;;5029156;28;21034;-79
2022/10/29 11:04:55;;;;;;;0.80;0.70;;;;;;;;;;5023776;28;20403;-79
2022/10/29 11:07:22;;;;;;;0.70;0.67;;;;;;;;;;5032874;28;20495;-80
2022/10/29 11:09:53;;;;;;;0.70;0.70;;;;;;;;;;5027570;28;21018;-80
2022/10/29 11:12:24;;;;;;;0.70;0.70;;;;;;;;;;5023105;28;20452;-80
2022/10/29 11:14:53;;;;;;;1.00;0.90;;;;;;;;;;5024749;28;20417;-80
2022/10/29 11:17:25;;;;;;;0.80;0.77;;;;;;;;;;5021727;28;20481;-80
2022/10/29 11:19:55;;;;;;;0.70;0.70;;;;;;;;;;5011846;28;20541;-80
2022/10/29 11:22:23;;;;;;;2.70;1.53;;;;;;;;;;5006046;28;20994;-80
2022/10/29 11:24:54;;;;;;;1.40;1.30;;;;;;;;;;5025246;28;20412;-79
2022/10/29 11:27:24;;;;;;;0.70;0.70;;;;;;;;;;5028497;28;20466;-79
2022/10/29 11:29:55;;;;;;;0.73;0.73;;;;;;;;;;5012558;28;20447;-80
2022/10/29 11:32:24;;;;;;;1.00;0.80;;;;;;;;;;5015609;28;20981;-80
2022/10/29 11:34:56;;;;;;;1.23;1.13;;;;;;;;;;5031138;28;20448;-80
2022/10/29 11:37:29;;;;;;;0.80;0.80;;;;;;;;;;5036885;28;20568;-79
2022/10/29 11:39:58;;;;;;;0.80;0.70;;;;;;;;;;5036118;28;20506;-79
2022/10/29 11:42:25;;;;;;;1.10;1.00;;;;;;;;;;5025645;28;20448;-78
2022/10/29 11:44:52;;;;;;;0.80;0.80;;;;;;;;;;5024645;28;20472;-78
2022/10/29 11:47:29;;;;;;;0.70;0.70;;;;;;;;;;5023085;28;20500;-79
2022/10/29 11:50:02;;;;;;;0.90;0.90;;;;;;;;;;5029913;28;20428;-79
2022/10/29 11:52:33;;;;;;;1.13;1.03;;;;;;;;;;5022422;28;20538;-79
2022/10/29 11:55:07;;;;;;;0.70;0.60;;;;;;;;;;5024291;28;20854;-78
2022/10/29 11:57:38;;;;;;;4.37;2.00;;;;;;;;;;5018434;28;20450;-81
2022/10/29 12:00:10;;;;;;;0.80;0.70;;;;;;;;;;5017211;28;20442;-78
2022/10/29 12:02:50;;;;;;;0.70;0.60;;;;;;;;;;5024673;28;21012;-79
2022/10/29 12:05:21;;;;;;;0.70;0.70;;;;;;;;;;5025658;28;20843;-78
2022/10/29 12:07:57;;;;;;;0.70;0.63;;;;;;;;;;5029312;28;20473;-78
2022/10/29 12:10:37;;;;;;;0.80;0.80;;;;;;;;;;5023006;28;20966;-78
2022/10/29 12:13:09;;;;;;;0.70;0.70;;;;;;;;;;5038674;28;20543;-79
2022/10/29 12:15:37;;;;;;;0.80;0.70;;;;;;;;;;5011922;28;20555;-78
2022/10/29 12:18:09;;;;;;;0.80;0.70;;;;;;;;;;5025406;28;20444;-78
2022/10/29 12:20:39;;;;;;;1.20;0.90;;;;;;;;;;5029165;28;20477;-78
2022/10/29 12:23:13;;;;;;;1.67;1.57;;;;;;;;;;5043766;28;20883;-77
2022/10/29 12:25:47;;;;;;;0.97;0.93;;;;;;;;;;5032054;28;20420;-81
2022/10/29 12:28:20;;;;;;;1.03;0.93;;;;;;;;;;5032663;28;20465;-77
2022/10/29 12:30:53;;;;;;;0.70;0.60;;;;;;;;;;5029789;28;20500;-76
2022/10/29 12:33:22;;;;;;;0.70;0.60;;;;;;;;;;5032798;28;20434;-77
2022/10/29 12:35:52;;;;;;;0.80;0.70;;;;;;;;;;5026971;28;20912;-78
2022/10/29 12:38:31;;;;;;;0.70;0.57;;;;;;;;;;5025153;28;20453;-79
2022/10/29 12:41:00;;;;;;;0.70;0.63;;;;;;;;;;5017630;28;20498;-78
2022/10/29 12:43:28;;;;;;;0.80;0.80;;;;;;;;;;5010955;28;20528;-79
2022/10/29 12:46:00;;;;;;;0.70;0.60;;;;;;;;;;5026249;28;20797;-78
2022/10/29 12:48:50;;;;;;;0.80;0.70;;;;;;;;;;5024885;28;20489;-78
2022/10/29 12:51:23;;;;;;;0.70;0.60;;;;;;;;;;5014642;28;20476;-78
2022/10/29 12:53:59;;;;;;;1.53;1.43;;;;;;;;;;5001337;28;20458;-79
2022/10/29 12:56:27;;;;;;;0.70;0.60;;;;;;;;;;5030034;28;20480;-79
2022/10/29 12:58:56;;;;;;;0.90;0.80;;;;;;;;;;5020788;28;20472;-79
2022/10/29 13:01:44;;;;;;;0.80;0.70;;;;;;;;;;5025025;28;21017;-79
2022/10/29 13:04:33;;;;;;;1.00;0.90;;;;;;;;;;5030395;28;20468;-78
2022/10/29 13:07:04;;;;;;;0.90;0.90;;;;;;;;;;5032246;28;20846;-79
2022/10/29 13:09:34;;;;;;;1.37;1.27;;;;;;;;;;5025808;28;20446;-79
2022/10/29 13:12:03;;;;;;;1.63;1.17;;;;;;;;;;5021623;28;20565;-79
2022/10/29 13:14:34;;;;;;;0.80;0.80;;;;;;;;;;5019631;28;20441;-79
2022/10/29 13:17:02;;;;;;;1.30;1.20;;;;;;;;;;5018325;28;20454;-78
2022/10/29 13:19:36;;;;;;;0.80;0.77;;;;;;;;;;5016225;28;20947;-78
2022/10/29 13:22:25;;;;;;;0.70;0.70;;;;;;;;;;5032381;28;20468;-79
2022/10/29 13:25:11;;;;;;;0.80;0.70;;;;;;;;;;5031311;28;20446;-78
2022/10/29 13:27:39;;;;;;;0.80;0.70;;;;;;;;;;5029589;28;20455;-77
2022/10/29 13:30:17;;;;;;;0.70;0.60;;;;;;;;;;5024161;28;20422;-78
2022/10/29 13:32:45;;;;;;;1.17;1.07;;;;;;;;;;5044076;28;20445;-77
2022/10/29 13:35:33;;;;;;;2.23;2.03;;;;;;;;;;5032852;28;20492;-78
2022/10/29 13:38:11;;;;;;;0.70;0.70;;;;;;;;;;5018423;28;20968;-78
2022/10/29 13:40:59;;;;;;;1.00;0.90;;;;;;;;;;5025978;28;20439;-79
2022/10/29 13:43:28;;;;;;;0.70;0.60;;;;;;;;;;5030401;28;20449;-77
2022/10/29 13:46:02;;;;;;;0.80;0.70;;;;;;;;;;5011618;28;20448;-78
2022/10/29 13:48:31;;;;;;;2.83;2.63;;;;;;;;;;5027333;28;21040;-78
2022/10/29 13:51:22;;;;;;;0.80;0.70;;;;;;;;;;5124708;27;20658;-78
2022/10/29 13:53:51;;;;;;;0.70;0.60;;;;;;;;;;5082066;28;20447;-78
2022/10/29 13:56:22;;;;;;;0.80;0.70;;;;;;;;;;5082431;28;20878;-77
2022/10/29 13:58:51;;;;;;;0.70;0.70;;;;;;;;;;5104468;28;20401;-79
2022/10/29 14:01:20;;;;;;;1.03;0.93;;;;;;;;;;5088023;28;20775;-80
2022/10/29 14:03:54;;;;;;;0.70;0.70;;;;;;;;;;5082502;28;20430;-79
2022/10/29 14:06:28;;;;;;;0.70;0.70;;;;;;;;;;5082728;28;20495;-79
2022/10/29 14:08:59;;;;;;;1.87;0.90;;;;;;;;;;5087891;28;21009;-80
2022/10/29 14:11:28;;;;;;;0.70;0.70;;;;;;;;;;5079138;28;20462;-81
2022/10/29 14:13:59;;;;;;;0.73;0.70;;;;;;;;;;5066364;28;20449;-80
2022/10/29 14:16:28;;;;;;;0.80;0.80;;;;;;;;;;5066934;28;20456;-80
2022/10/29 14:18:54;;;;;;;0.70;0.60;;;;;;;;;;5076059;28;20867;-80
2022/10/29 14:21:23;;;;;;;1.47;0.90;;;;;;;;;;5087444;28;20453;-80
2022/10/29 14:23:56;;;;;;;0.70;0.60;;;;;;;;;;5082962;28;20441;-80
2022/10/29 14:26:23;;;;;;;0.80;0.80;;;;;;;;;;5099492;28;20433;-80
2022/10/29 14:28:50;;;;;;;0.80;0.70;;;;;;;;;;5080371;28;20462;-78
2022/10/29 14:31:18;;;;;;;0.80;0.70;;;;;;;;;;5065206;28;20561;-79
2022/10/29 14:33:51;;;;;;;1.10;1.00;;;;;;;;;;5102666;28;20438;-79
2022/10/29 14:36:20;;;;;;;1.00;0.90;;;;;;;;;;5081481;28;20792;-79
2022/10/29 14:38:53;;;;;;;1.40;1.30;;;;;;;;;;5063837;28;20446;-79
2022/10/29 14:41:24;;;;;;;0.80;0.70;;;;;;;;;;5084331;28;20541;-79
2022/10/29 14:44:01;;;;;;;0.80;0.70;;;;;;;;;;5074337;28;20434;-79
2022/10/29 14:46:29;;;;;;;0.80;0.73;;;;;;;;;;5072202;28;20459;-79
2022/10/29 14:49:06;;;;;;;7.03;1.20;;;;;;;;;;5076510;28;20567;-79
2022/10/29 14:51:38;;;;;;;0.80;0.70;;;;;;;;;;5081150;28;20494;-79
2022/10/29 14:54:07;;;;;;;2.80;0.80;;;;;;;;;;5097673;28;20537;-79
2022/10/29 14:56:37;;;;;;;0.80;0.70;;;;;;;;;;5083567;28;20441;-80
2022/10/29 14:59:09;;;;;;;1.03;0.93;;;;;;;;;;5060722;28;20552;-80
2022/10/29 15:01:43;;;;;;;0.70;0.60;;;;;;;;;;5060202;28;20458;-80
2022/10/29 15:04:16;;;;;;;0.70;0.70;;;;;;;;;;5087562;28;20907;-80